Cathay, North Dakota
Current Conditions -  °F | °C
As of 8:55 AM on Thursday 30 Oct 2014 (Local Time) from K46D Reporting Station
Broken Clouds Broken Clouds  
Wind Chill: 21°   Ceiling: 400
Heat Index: 28°   Visibility: 9mi
Dew Point: 28°   Wind: 7mph
Humidity: 100%   Direction: 340°NNW
Pressure: 30.24"   Gusts: NA
Location:  47.55°N, 99.41°W
Report Text: K46D 301355Z AUTO 34006KT 9SM BKN004 M02/M02 A3024 RMK AO2
Loading
Personal Weather Stations






























Interactive Weather Map
Tropical Storm Tracking
New forecast layout! Learn more

10-Day Weather Forecast

Advertisements
Track Severe Weather on mobile